createdAt,value
2019-05-30T00:02:09.121Z,17.90
2019-05-30T00:07:13.122Z,18.00
2019-05-30T00:12:18.168Z,17.80
2019-05-30T00:17:22.838Z,17.70
2019-05-30T00:22:27.583Z,17.50
2019-05-30T00:27:32.298Z,17.70
2019-05-30T00:32:36.663Z,17.70
2019-05-30T00:37:41.324Z,17.80
2019-05-30T00:42:46.074Z,17.40
2019-05-30T00:47:50.407Z,17.60
2019-05-30T00:52:56.362Z,17.70
2019-05-30T00:58:00.642Z,17.70
2019-05-30T01:03:08.465Z,17.50
2019-05-30T01:08:12.323Z,17.50
2019-05-30T01:13:16.628Z,17.60
2019-05-30T01:18:21.131Z,17.60
2019-05-30T01:23:25.763Z,17.70
2019-05-30T01:28:29.783Z,17.40
2019-05-30T01:33:34.294Z,17.50
2019-05-30T01:38:38.534Z,17.30
2019-05-30T01:43:42.535Z,17.70
2019-05-30T01:48:46.419Z,17.50
2019-05-30T01:53:50.955Z,17.30
2019-05-30T01:58:55.147Z,17.30
2019-05-30T02:04:00.953Z,17.20
2019-05-30T02:09:07.497Z,17.30
2019-05-30T02:14:12.103Z,17.60
2019-05-30T02:19:17.039Z,17.30
2019-05-30T02:24:22.116Z,16.80
2019-05-30T02:29:25.992Z,17.50
2019-05-30T02:34:30.165Z,17.40
2019-05-30T02:39:34.696Z,17.30
2019-05-30T02:44:38.820Z,17.60
2019-05-30T02:49:42.695Z,17.40
2019-05-30T02:54:46.667Z,17.20
2019-05-30T02:59:51.017Z,17.00
2019-05-30T03:04:55.323Z,17.30
2019-05-30T03:09:59.519Z,17.20
2019-05-30T03:15:06.764Z,17.20
2019-05-30T03:20:21.518Z,17.30
2019-05-30T03:25:16.940Z,17.30
2019-05-30T03:30:27.306Z,17.20
2019-05-30T03:35:30.685Z,17.30
2019-05-30T03:40:33.356Z,17.20
2019-05-30T03:45:39.275Z,17.20
2019-05-30T03:50:47.179Z,17.30
2019-05-30T03:55:56.712Z,17.00
2019-05-30T04:01:05.759Z,17.30
2019-05-30T04:06:16.743Z,17.20
2019-05-30T04:11:24.072Z,17.20
2019-05-30T04:16:28.345Z,17.10
2019-05-30T04:21:32.187Z,16.90
2019-05-30T04:26:36.713Z,17.30
2019-05-30T04:31:40.590Z,17.10
2019-05-30T04:36:44.444Z,17.20
2019-05-30T04:41:48.632Z,17.20
2019-05-30T04:46:53.144Z,17.20
2019-05-30T04:51:57.386Z,17.10
2019-05-30T04:57:01.361Z,17.00
2019-05-30T05:02:05.491Z,17.10
2019-05-30T05:07:09.338Z,17.40
2019-05-30T05:12:13.962Z,17.30
2019-05-30T05:17:18.829Z,17.10
2019-05-30T05:22:23.400Z,17.20
2019-05-30T05:27:27.679Z,17.30
2019-05-30T05:32:31.569Z,17.20
2019-05-30T05:37:36.020Z,17.10
2019-05-30T05:42:39.995Z,17.20
2019-05-30T05:47:43.845Z,17.20
2019-05-30T05:52:48.018Z,17.10
2019-05-30T05:57:52.141Z,17.30
2019-05-30T06:02:56.854Z,17.30
2019-05-30T06:08:01.136Z,17.60
2019-05-30T06:13:05.367Z,17.30
2019-05-30T06:18:09.390Z,17.30
2019-05-30T06:23:13.298Z,17.40
2019-05-30T06:28:17.971Z,17.60
2019-05-30T06:33:23.476Z,17.60
2019-05-30T06:38:29.425Z,17.30
2019-05-30T06:43:34.181Z,17.50
2019-05-30T06:48:38.487Z,17.70
2019-05-30T06:53:42.444Z,17.60
2019-05-30T06:58:48.989Z,17.70
2019-05-30T07:03:52.648Z,19.10
2019-05-30T07:08:57.011Z,19.80
2019-05-30T07:14:01.289Z,20.30
2019-05-30T07:19:05.316Z,20.40
2019-05-30T07:24:09.860Z,20.20
2019-05-30T07:29:13.991Z,20.40
2019-05-30T07:34:18.131Z,20.00
2019-05-30T07:39:21.990Z,19.60
2019-05-30T07:44:26.811Z,19.50
2019-05-30T07:49:32.368Z,19.60
2019-05-30T07:54:36.662Z,19.80
2019-05-30T07:59:40.514Z,19.90
2019-05-30T08:04:46.873Z,20.00
2019-05-30T08:09:50.323Z,20.10
2019-05-30T08:14:54.163Z,20.00
2019-05-30T08:19:58.331Z,20.50
2019-05-30T08:25:02.621Z,20.20
2019-05-30T08:30:07.085Z,20.20
2019-05-30T08:35:11.473Z,20.30
2019-05-30T08:40:16.227Z,20.30
2019-05-30T08:45:20.803Z,20.50
2019-05-30T08:50:26.539Z,20.60
2019-05-30T08:55:32.390Z,20.80
2019-05-30T09:00:36.656Z,20.70
2019-05-30T09:05:58.140Z,20.90
2019-05-30T09:10:48.290Z,20.60
2019-05-30T09:15:52.627Z,20.90
2019-05-30T09:20:56.994Z,20.60
2019-05-30T09:26:00.959Z,20.90
2019-05-30T09:31:05.239Z,20.80
2019-05-30T09:36:13.131Z,20.60
2019-05-30T09:41:14.829Z,20.90
2019-05-30T09:46:19.367Z,20.80
2019-05-30T09:51:23.535Z,20.40
2019-05-30T09:56:27.691Z,20.40
2019-05-30T10:01:32.337Z,20.40
2019-05-30T10:06:36.911Z,20.20
2019-05-30T10:11:41.159Z,20.00
2019-05-30T10:16:49.949Z,20.20
2019-05-30T10:21:52.037Z,20.10
2019-05-30T10:26:57.441Z,20.20
2019-05-30T10:32:01.662Z,20.30
2019-05-30T10:37:05.578Z,20.10
2019-05-30T10:42:09.610Z,20.10
2019-05-30T10:47:13.955Z,20.20
2019-05-30T10:52:18.442Z,20.30
2019-05-30T10:57:22.455Z,20.20
2019-05-30T11:02:26.756Z,20.40
2019-05-30T11:07:36.974Z,20.20
2019-05-30T11:12:41.171Z,20.10
2019-05-30T11:17:45.405Z,20.20
2019-05-30T11:22:50.071Z,20.10
2019-05-30T11:27:54.813Z,20.50
2019-05-30T11:32:59.467Z,20.30
2019-05-30T11:38:04.071Z,20.20
2019-05-30T11:43:08.358Z,20.50
2019-05-30T11:48:13.362Z,20.40
2019-05-30T11:53:17.305Z,20.30
2019-05-30T11:58:21.791Z,20.50
2019-05-30T12:03:29.256Z,20.30
2019-05-30T12:08:32.082Z,20.30
2019-05-30T12:13:36.223Z,20.10
2019-05-30T12:18:40.450Z,20.30
2019-05-30T12:23:44.772Z,20.30
2019-05-30T12:28:48.647Z,20.30
2019-05-30T12:33:52.549Z,20.30
2019-05-30T12:38:56.487Z,20.30
2019-05-30T12:44:01.367Z,20.40
2019-05-30T12:49:05.525Z,20.30
2019-05-30T12:54:09.722Z,20.40
2019-05-30T12:59:13.652Z,20.60
2019-05-30T13:04:18.134Z,20.60
2019-05-30T13:09:22.314Z,20.50
2019-05-30T13:14:26.170Z,20.80
2019-05-30T13:19:30.379Z,20.70
2019-05-30T13:24:34.334Z,20.70
2019-05-30T13:29:38.562Z,20.50
2019-05-30T13:34:42.937Z,20.70
2019-05-30T13:39:46.839Z,20.50
2019-05-30T13:44:51.028Z,20.50
2019-05-30T13:49:55.222Z,20.50
2019-05-30T13:54:59.429Z,20.70
2019-05-30T14:00:03.810Z,20.70
2019-05-30T14:05:10.628Z,20.40
2019-05-30T14:10:15.700Z,20.60
2019-05-30T14:15:21.498Z,20.70
2019-05-30T14:20:25.817Z,20.50
2019-05-30T14:25:29.928Z,20.80
2019-05-30T14:30:34.088Z,20.50
2019-05-30T14:35:38.287Z,20.50
2019-05-30T14:40:42.469Z,20.50
2019-05-30T14:45:47.268Z,20.30
2019-05-30T14:50:51.151Z,20.40
2019-05-30T14:55:55.740Z,20.60
2019-05-30T15:00:59.927Z,20.50
2019-05-30T15:06:06.864Z,20.20
2019-05-30T15:11:09.980Z,20.50
2019-05-30T15:16:14.515Z,20.60
2019-05-30T15:21:19.103Z,20.70
2019-05-30T15:26:23.031Z,20.40
2019-05-30T15:31:26.944Z,20.50
2019-05-30T15:36:31.416Z,20.50
2019-05-30T15:41:35.360Z,20.40
2019-05-30T15:46:39.803Z,20.50
2019-05-30T15:51:43.700Z,20.70
2019-05-30T15:56:47.971Z,20.60
2019-05-30T16:01:51.914Z,20.80
2019-05-30T16:06:55.799Z,20.60
2019-05-30T16:11:59.667Z,20.50
2019-05-30T16:17:03.596Z,20.50
2019-05-30T16:22:08.106Z,20.20
2019-05-30T16:27:13.580Z,20.50
2019-05-30T16:32:18.601Z,20.60
2019-05-30T16:37:23.183Z,20.30
2019-05-30T16:42:27.111Z,20.20
2019-05-30T16:47:31.446Z,20.30
2019-05-30T16:52:35.539Z,21.30
2019-05-30T16:57:39.995Z,20.70
2019-05-30T17:02:44.490Z,20.70
2019-05-30T17:07:48.807Z,20.60
2019-05-30T17:12:52.886Z,20.70
2019-05-30T17:17:57.459Z,20.90
2019-05-30T17:23:01.883Z,20.80
2019-05-30T17:28:06.221Z,20.90
2019-05-30T17:33:11.029Z,20.90
2019-05-30T17:38:15.163Z,20.70
2019-05-30T17:43:19.086Z,20.60
2019-05-30T17:48:23.600Z,20.80
2019-05-30T17:53:27.976Z,20.50
2019-05-30T17:58:32.286Z,20.80
2019-05-30T18:03:36.139Z,21.00
2019-05-30T18:08:40.397Z,20.90
2019-05-30T18:13:44.267Z,20.80
2019-05-30T18:18:48.229Z,20.50
2019-05-30T18:23:52.378Z,20.50
2019-05-30T18:28:56.570Z,20.80
2019-05-30T18:34:00.424Z,20.50
2019-05-30T18:39:06.410Z,20.80
2019-05-30T18:44:10.743Z,20.50
2019-05-30T18:49:14.947Z,20.80
2019-05-30T18:54:19.162Z,20.50
2019-05-30T18:59:23.373Z,20.40
2019-05-30T19:04:27.983Z,20.60
2019-05-30T19:09:33.421Z,20.40
2019-05-30T19:14:37.891Z,20.70
2019-05-30T19:19:41.738Z,20.90
2019-05-30T19:24:45.663Z,20.60
2019-05-30T19:29:50.164Z,20.60
2019-05-30T19:34:54.723Z,20.50
2019-05-30T19:39:59.472Z,20.50
2019-05-30T19:45:04.542Z,20.60
2019-05-30T19:50:09.374Z,20.80
2019-05-30T19:55:13.664Z,20.50
2019-05-30T20:00:19.476Z,20.50
2019-05-30T20:05:23.811Z,20.30
2019-05-30T20:10:28.043Z,20.30
2019-05-30T20:15:33.227Z,20.20
2019-05-30T20:20:50.450Z,20.30
2019-05-30T20:25:45.923Z,20.10
2019-05-30T20:30:49.995Z,20.80
2019-05-30T20:35:54.542Z,20.50
2019-05-30T20:40:58.534Z,20.60
2019-05-30T20:46:02.426Z,20.20
2019-05-30T20:51:20.501Z,20.20
2019-05-30T20:56:12.900Z,20.20
2019-05-30T21:01:17.194Z,20.20
2019-05-30T21:06:22.003Z,20.30
2019-05-30T21:11:27.108Z,20.00
2019-05-30T21:16:35.552Z,20.20
2019-05-30T21:21:40.026Z,20.10
2019-05-30T21:26:44.853Z,20.20
2019-05-30T21:31:49.499Z,20.00
2019-05-30T21:36:54.461Z,19.80
2019-05-30T21:41:58.299Z,19.60
2019-05-30T21:47:03.028Z,19.70
2019-05-30T21:52:07.251Z,19.50
2019-05-30T21:57:12.100Z,19.60
2019-05-30T22:02:15.943Z,19.70
2019-05-30T22:07:20.991Z,19.70
2019-05-30T22:12:24.960Z,19.60
2019-05-30T22:17:29.555Z,19.40
2019-05-30T22:22:33.483Z,19.60
2019-05-30T22:27:37.666Z,19.40
2019-05-30T22:32:42.619Z,19.50
2019-05-30T22:37:46.947Z,19.50
2019-05-30T22:42:52.226Z,19.40
2019-05-30T22:47:56.792Z,19.40
2019-05-30T22:53:01.454Z,19.50
2019-05-30T22:58:05.471Z,19.30
2019-05-30T23:03:09.963Z,19.50
2019-05-30T23:08:14.235Z,19.50
2019-05-30T23:13:18.467Z,19.10
2019-05-30T23:18:22.322Z,19.00
2019-05-30T23:23:26.429Z,19.10
2019-05-30T23:28:30.555Z,19.20
2019-05-30T23:33:34.794Z,19.00
2019-05-30T23:38:39.089Z,19.20
2019-05-30T23:43:56.727Z,19.10
2019-05-30T23:48:49.550Z,19.10
2019-05-30T23:53:54.079Z,18.90
2019-05-30T23:58:58.880Z,19.00
